sensor_id;sensor_type;location;lat;lon;timestamp;temperature;humidity
23717;DHT22;22094;52.130;5.598;2023-05-25T00:02:04;9.20;99.90
23717;DHT22;22094;52.130;5.598;2023-05-25T00:04:30;9.10;99.90
23717;DHT22;22094;52.130;5.598;2023-05-25T00:06:59;9.10;99.90
23717;DHT22;22094;52.130;5.598;2023-05-25T00:09:25;9.10;99.90
23717;DHT22;22094;52.130;5.598;2023-05-25T00:11:50;9.10;99.90
23717;DHT22;22094;52.130;5.598;2023-05-25T00:14:17;9.10;99.90
23717;DHT22;22094;52.130;5.598;2023-05-25T00:16:43;9.10;99.90
23717;DHT22;22094;52.130;5.598;2023-05-25T00:19:10;9.00;99.90
23717;DHT22;22094;52.130;5.598;2023-05-25T00:21:36;9.10;99.90
23717;DHT22;22094;52.130;5.598;2023-05-25T00:24:03;9.00;99.90
23717;DHT22;22094;52.130;5.598;2023-05-25T00:26:29;9.00;99.90
23717;DHT22;22094;52.130;5.598;2023-05-25T00:28:54;8.90;99.90
23717;DHT22;22094;52.130;5.598;2023-05-25T00:31:20;8.90;99.90
23717;DHT22;22094;52.130;5.598;2023-05-25T00:33:45;8.80;99.90
23717;DHT22;22094;52.130;5.598;2023-05-25T00:36:11;8.80;99.90
23717;DHT22;22094;52.130;5.598;2023-05-25T00:38:37;8.70;99.90
23717;DHT22;22094;52.130;5.598;2023-05-25T00:41:02;8.60;99.90
23717;DHT22;22094;52.130;5.598;2023-05-25T00:43:30;8.60;99.90
23717;DHT22;22094;52.130;5.598;2023-05-25T00:45:56;8.50;99.90
23717;DHT22;22094;52.130;5.598;2023-05-25T00:48:24;8.40;99.90
23717;DHT22;22094;52.130;5.598;2023-05-25T00:50:55;8.40;99.90
23717;DHT22;22094;52.130;5.598;2023-05-25T00:53:24;8.40;99.90
23717;DHT22;22094;52.130;5.598;2023-05-25T00:56:13;8.30;99.90
23717;DHT22;22094;52.130;5.598;2023-05-25T00:58:41;8.30;99.90
23717;DHT22;22094;52.130;5.598;2023-05-25T01:01:08;8.10;99.90
23717;DHT22;22094;52.130;5.598;2023-05-25T01:03:38;8.20;99.90
23717;DHT22;22094;52.130;5.598;2023-05-25T01:06:10;8.10;99.90
23717;DHT22;22094;52.130;5.598;2023-05-25T01:08:42;8.10;99.90
23717;DHT22;22094;52.130;5.598;2023-05-25T01:11:10;8.10;99.90
23717;DHT22;22094;52.130;5.598;2023-05-25T01:13:37;8.00;99.90
23717;DHT22;22094;52.130;5.598;2023-05-25T01:16:04;8.00;99.90
23717;DHT22;22094;52.130;5.598;2023-05-25T01:18:30;8.10;99.90
23717;DHT22;22094;52.130;5.598;2023-05-25T01:26:45;7.90;99.90
23717;DHT22;22094;52.130;5.598;2023-05-25T01:29:12;7.90;99.90
23717;DHT22;22094;52.130;5.598;2023-05-25T01:31:39;7.90;99.90
23717;DHT22;22094;52.130;5.598;2023-05-25T01:34:06;8.00;99.90
23717;DHT22;22094;52.130;5.598;2023-05-25T01:36:32;7.90;99.90
23717;DHT22;22094;52.130;5.598;2023-05-25T01:38:58;7.80;99.90
23717;DHT22;22094;52.130;5.598;2023-05-25T01:41:23;7.70;99.90
23717;DHT22;22094;52.130;5.598;2023-05-25T01:43:51;7.70;99.90
23717;DHT22;22094;52.130;5.598;2023-05-25T01:46:36;7.70;99.90
23717;DHT22;22094;52.130;5.598;2023-05-25T01:54:21;7.70;99.90
23717;DHT22;22094;52.130;5.598;2023-05-25T01:56:49;7.60;99.90
23717;DHT22;22094;52.130;5.598;2023-05-25T01:59:19;7.70;99.90
23717;DHT22;22094;52.130;5.598;2023-05-25T02:01:45;7.60;99.90
23717;DHT22;22094;52.130;5.598;2023-05-25T02:04:13;7.60;99.90
23717;DHT22;22094;52.130;5.598;2023-05-25T02:06:39;7.50;99.90
23717;DHT22;22094;52.130;5.598;2023-05-25T02:09:05;7.40;99.90
23717;DHT22;22094;52.130;5.598;2023-05-25T02:11:30;7.50;99.90
23717;DHT22;22094;52.130;5.598;2023-05-25T02:13:56;7.50;99.90
23717;DHT22;22094;52.130;5.598;2023-05-25T02:16:21;7.50;99.90
23717;DHT22;22094;52.130;5.598;2023-05-25T02:18:47;7.50;99.90
23717;DHT22;22094;52.130;5.598;2023-05-25T02:21:12;7.50;99.90
23717;DHT22;22094;52.130;5.598;2023-05-25T02:23:38;7.60;99.90
23717;DHT22;22094;52.130;5.598;2023-05-25T02:26:04;7.60;99.90
23717;DHT22;22094;52.130;5.598;2023-05-25T02:28:29;7.70;99.90
23717;DHT22;22094;52.130;5.598;2023-05-25T02:30:55;7.70;99.90
23717;DHT22;22094;52.130;5.598;2023-05-25T02:33:20;7.70;99.90
23717;DHT22;22094;52.130;5.598;2023-05-25T02:35:46;7.70;99.90
23717;DHT22;22094;52.130;5.598;2023-05-25T02:38:12;7.60;99.90
23717;DHT22;22094;52.130;5.598;2023-05-25T02:40:38;7.60;99.90
23717;DHT22;22094;52.130;5.598;2023-05-25T02:43:03;7.60;99.90
23717;DHT22;22094;52.130;5.598;2023-05-25T02:45:29;7.60;99.90
23717;DHT22;22094;52.130;5.598;2023-05-25T02:47:54;7.60;99.90
23717;DHT22;22094;52.130;5.598;2023-05-25T02:50:20;7.50;99.90
23717;DHT22;22094;52.130;5.598;2023-05-25T02:52:46;7.50;99.90
23717;DHT22;22094;52.130;5.598;2023-05-25T02:55:11;7.60;99.90
23717;DHT22;22094;52.130;5.598;2023-05-25T02:57:43;7.60;99.90
23717;DHT22;22094;52.130;5.598;2023-05-25T03:00:09;7.60;99.90
23717;DHT22;22094;52.130;5.598;2023-05-25T03:02:38;7.50;99.90
23717;DHT22;22094;52.130;5.598;2023-05-25T03:05:04;7.60;99.90
23717;DHT22;22094;52.130;5.598;2023-05-25T03:07:29;7.60;99.90
23717;DHT22;22094;52.130;5.598;2023-05-25T03:09:55;7.60;99.90
23717;DHT22;22094;52.130;5.598;2023-05-25T03:12:21;7.50;99.90
23717;DHT22;22094;52.130;5.598;2023-05-25T03:14:47;7.60;99.90
23717;DHT22;22094;52.130;5.598;2023-05-25T03:17:12;7.50;99.90
23717;DHT22;22094;52.130;5.598;2023-05-25T03:19:38;7.60;99.90
23717;DHT22;22094;52.130;5.598;2023-05-25T03:22:03;7.60;99.90
23717;DHT22;22094;52.130;5.598;2023-05-25T03:24:29;7.70;99.90
23717;DHT22;22094;52.130;5.598;2023-05-25T03:26:55;7.60;99.90
23717;DHT22;22094;52.130;5.598;2023-05-25T03:29:20;7.60;99.90
23717;DHT22;22094;52.130;5.598;2023-05-25T03:31:46;7.60;99.90
23717;DHT22;22094;52.130;5.598;2023-05-25T03:34:11;7.60;99.90
23717;DHT22;22094;52.130;5.598;2023-05-25T03:36:37;7.60;99.90
23717;DHT22;22094;52.130;5.598;2023-05-25T03:39:04;7.50;99.90
23717;DHT22;22094;52.130;5.598;2023-05-25T03:41:29;7.60;99.90
23717;DHT22;22094;52.130;5.598;2023-05-25T03:43:55;7.60;99.90
23717;DHT22;22094;52.130;5.598;2023-05-25T03:46:21;7.50;99.90
23717;DHT22;22094;52.130;5.598;2023-05-25T03:48:46;7.50;99.90
23717;DHT22;22094;52.130;5.598;2023-05-25T03:51:12;7.50;99.90
23717;DHT22;22094;52.130;5.598;2023-05-25T03:53:37;7.40;99.90
23717;DHT22;22094;52.130;5.598;2023-05-25T03:56:03;7.40;99.90
23717;DHT22;22094;52.130;5.598;2023-05-25T03:58:29;7.50;99.90
23717;DHT22;22094;52.130;5.598;2023-05-25T04:00:54;7.60;99.90
23717;DHT22;22094;52.130;5.598;2023-05-25T04:03:20;7.60;99.90
23717;DHT22;22094;52.130;5.598;2023-05-25T04:05:46;7.60;99.90
23717;DHT22;22094;52.130;5.598;2023-05-25T04:08:15;7.70;99.90
23717;DHT22;22094;52.130;5.598;2023-05-25T04:10:45;7.80;99.90
23717;DHT22;22094;52.130;5.598;2023-05-25T04:13:10;7.90;99.90
23717;DHT22;22094;52.130;5.598;2023-05-25T04:15:36;8.00;99.90
23717;DHT22;22094;52.130;5.598;2023-05-25T04:18:02;8.10;99.90
23717;DHT22;22094;52.130;5.598;2023-05-25T04:20:28;8.10;99.90
23717;DHT22;22094;52.130;5.598;2023-05-25T04:22:54;8.20;99.90
23717;DHT22;22094;52.130;5.598;2023-05-25T04:25:20;8.20;99.90
23717;DHT22;22094;52.130;5.598;2023-05-25T04:27:46;8.40;99.90
23717;DHT22;22094;52.130;5.598;2023-05-25T04:30:11;8.60;99.90
23717;DHT22;22094;52.130;5.598;2023-05-25T04:32:38;8.60;99.90
23717;DHT22;22094;52.130;5.598;2023-05-25T04:35:04;8.70;99.90
23717;DHT22;22094;52.130;5.598;2023-05-25T04:37:30;8.80;99.90
23717;DHT22;22094;52.130;5.598;2023-05-25T04:39:57;9.20;99.90
23717;DHT22;22094;52.130;5.598;2023-05-25T04:42:22;9.10;99.90
23717;DHT22;22094;52.130;5.598;2023-05-25T04:44:51;9.10;99.90
23717;DHT22;22094;52.130;5.598;2023-05-25T04:47:20;9.20;99.90
23717;DHT22;22094;52.130;5.598;2023-05-25T04:49:46;9.40;99.90
23717;DHT22;22094;52.130;5.598;2023-05-25T04:52:11;12.20;99.90
23717;DHT22;22094;52.130;5.598;2023-05-25T04:54:37;9.70;99.90
23717;DHT22;22094;52.130;5.598;2023-05-25T04:57:03;9.60;99.90
23717;DHT22;22094;52.130;5.598;2023-05-25T04:59:28;8.70;99.90
23717;DHT22;22094;52.130;5.598;2023-05-25T05:01:54;9.90;99.90
23717;DHT22;22094;52.130;5.598;2023-05-25T05:04:20;9.90;99.90
23717;DHT22;22094;52.130;5.598;2023-05-25T05:06:45;10.00;99.90
23717;DHT22;22094;52.130;5.598;2023-05-25T05:09:11;10.20;99.90
23717;DHT22;22094;52.130;5.598;2023-05-25T05:11:37;10.30;99.90
23717;DHT22;22094;52.130;5.598;2023-05-25T05:14:03;10.60;99.90
23717;DHT22;22094;52.130;5.598;2023-05-25T05:16:28;10.40;99.90
23717;DHT22;22094;52.130;5.598;2023-05-25T05:18:58;10.70;99.90
23717;DHT22;22094;52.130;5.598;2023-05-25T05:21:24;10.80;99.90
23717;DHT22;22094;52.130;5.598;2023-05-25T05:23:50;11.10;99.90
23717;DHT22;22094;52.130;5.598;2023-05-25T05:26:15;11.20;99.90
23717;DHT22;22094;52.130;5.598;2023-05-25T05:31:07;11.40;99.90
23717;DHT22;22094;52.130;5.598;2023-05-25T05:33:33;11.50;99.90
23717;DHT22;22094;52.130;5.598;2023-05-25T05:35:59;11.70;99.90
23717;DHT22;22094;52.130;5.598;2023-05-25T05:38:25;12.00;99.90
23717;DHT22;22094;52.130;5.598;2023-05-25T05:40:51;10.00;99.90
23717;DHT22;22094;52.130;5.598;2023-05-25T05:43:17;12.00;99.90
23717;DHT22;22094;52.130;5.598;2023-05-25T05:45:42;12.20;99.90
23717;DHT22;22094;52.130;5.598;2023-05-25T05:48:08;11.90;99.90
23717;DHT22;22094;52.130;5.598;2023-05-25T05:53:03;10.80;99.90
23717;DHT22;22094;52.130;5.598;2023-05-25T05:55:28;12.90;99.90
23717;DHT22;22094;52.130;5.598;2023-05-25T05:57:54;14.10;99.90
23717;DHT22;22094;52.130;5.598;2023-05-25T06:00:20;10.50;99.90
23717;DHT22;22094;52.130;5.598;2023-05-25T06:02:46;12.20;99.90
23717;DHT22;22094;52.130;5.598;2023-05-25T06:05:11;14.80;99.90
23717;DHT22;22094;52.130;5.598;2023-05-25T06:07:37;14.40;99.90
23717;DHT22;22094;52.130;5.598;2023-05-25T06:10:04;13.20;99.90
23717;DHT22;22094;52.130;5.598;2023-05-25T06:17:22;15.70;99.90
23717;DHT22;22094;52.130;5.598;2023-05-25T06:22:17;14.40;99.90
23717;DHT22;22094;52.130;5.598;2023-05-25T06:24:42;13.70;99.90
23717;DHT22;22094;52.130;5.598;2023-05-25T06:27:08;13.50;99.90
23717;DHT22;22094;52.130;5.598;2023-05-25T06:29:34;13.40;99.90
23717;DHT22;22094;52.130;5.598;2023-05-25T06:31:59;14.80;99.90
23717;DHT22;22094;52.130;5.598;2023-05-25T06:34:25;14.80;99.90
23717;DHT22;22094;52.130;5.598;2023-05-25T06:39:17;13.30;99.90
23717;DHT22;22094;52.130;5.598;2023-05-25T06:44:09;13.90;99.90
23717;DHT22;22094;52.130;5.598;2023-05-25T06:46:35;14.30;99.90
23717;DHT22;22094;52.130;5.598;2023-05-25T06:49:01;14.70;99.90
23717;DHT22;22094;52.130;5.598;2023-05-25T06:51:27;14.90;99.90
23717;DHT22;22094;52.130;5.598;2023-05-25T06:53:54;12.40;99.90
23717;DHT22;22094;52.130;5.598;2023-05-25T06:56:20;13.90;99.90
23717;DHT22;22094;52.130;5.598;2023-05-25T06:58:47;14.40;99.90
23717;DHT22;22094;52.130;5.598;2023-05-25T07:01:13;12.40;99.90
23717;DHT22;22094;52.130;5.598;2023-05-25T07:03:38;14.20;99.90
23717;DHT22;22094;52.130;5.598;2023-05-25T07:06:05;14.10;99.90
23717;DHT22;22094;52.130;5.598;2023-05-25T07:08:30;14.10;99.90
23717;DHT22;22094;52.130;5.598;2023-05-25T07:10:56;14.90;99.90
23717;DHT22;22094;52.130;5.598;2023-05-25T07:13:22;15.70;99.90
23717;DHT22;22094;52.130;5.598;2023-05-25T07:15:47;14.70;99.90
23717;DHT22;22094;52.130;5.598;2023-05-25T07:18:13;15.30;99.90
23717;DHT22;22094;52.130;5.598;2023-05-25T07:20:40;15.40;99.90
23717;DHT22;22094;52.130;5.598;2023-05-25T07:23:11;16.70;99.90
23717;DHT22;22094;52.130;5.598;2023-05-25T07:25:37;15.10;99.90
23717;DHT22;22094;52.130;5.598;2023-05-25T07:30:29;15.20;99.90
23717;DHT22;22094;52.130;5.598;2023-05-25T07:32:54;15.70;99.90
23717;DHT22;22094;52.130;5.598;2023-05-25T07:35:21;17.20;99.90
23717;DHT22;22094;52.130;5.598;2023-05-25T07:37:55;17.70;99.90
23717;DHT22;22094;52.130;5.598;2023-05-25T07:42:47;13.70;99.90
23717;DHT22;22094;52.130;5.598;2023-05-25T07:45:12;17.60;99.90
23717;DHT22;22094;52.130;5.598;2023-05-25T07:47:38;16.60;99.90
23717;DHT22;22094;52.130;5.598;2023-05-25T07:50:04;16.30;99.90
23717;DHT22;22094;52.130;5.598;2023-05-25T07:52:29;16.40;99.90
23717;DHT22;22094;52.130;5.598;2023-05-25T07:54:55;17.20;99.90
23717;DHT22;22094;52.130;5.598;2023-05-25T07:57:20;16.30;99.90
23717;DHT22;22094;52.130;5.598;2023-05-25T08:04:38;15.80;99.90
23717;DHT22;22094;52.130;5.598;2023-05-25T08:07:03;17.00;99.90
23717;DHT22;22094;52.130;5.598;2023-05-25T08:09:29;18.10;99.90
23717;DHT22;22094;52.130;5.598;2023-05-25T08:11:56;16.50;99.90
23717;DHT22;22094;52.130;5.598;2023-05-25T08:14:21;20.00;99.90
23717;DHT22;22094;52.130;5.598;2023-05-25T08:16:48;16.10;99.90
23717;DHT22;22094;52.130;5.598;2023-05-25T08:19:13;14.50;99.90
23717;DHT22;22094;52.130;5.598;2023-05-25T08:21:39;17.50;99.90
23717;DHT22;22094;52.130;5.598;2023-05-25T08:24:05;17.40;99.90
23717;DHT22;22094;52.130;5.598;2023-05-25T08:26:33;14.50;99.90
23717;DHT22;22094;52.130;5.598;2023-05-25T08:29:01;16.90;99.90
23717;DHT22;22094;52.130;5.598;2023-05-25T08:31:27;16.70;99.90
23717;DHT22;22094;52.130;5.598;2023-05-25T08:41:11;18.30;99.90
23717;DHT22;22094;52.130;5.598;2023-05-25T08:43:37;19.70;99.90
23717;DHT22;22094;52.130;5.598;2023-05-25T08:46:04;18.80;99.90
23717;DHT22;22094;52.130;5.598;2023-05-25T08:48:32;18.00;99.90
23717;DHT22;22094;52.130;5.598;2023-05-25T08:51:06;18.30;99.90
23717;DHT22;22094;52.130;5.598;2023-05-25T08:53:42;18.40;99.90
23717;DHT22;22094;52.130;5.598;2023-05-25T08:56:19;18.70;99.90
23717;DHT22;22094;52.130;5.598;2023-05-25T08:59:01;19.50;99.90
23717;DHT22;22094;52.130;5.598;2023-05-25T09:01:32;21.60;99.90
23717;DHT22;22094;52.130;5.598;2023-05-25T09:03:58;21.80;99.90
23717;DHT22;22094;52.130;5.598;2023-05-25T09:08:53;19.70;99.90
23717;DHT22;22094;52.130;5.598;2023-05-25T09:11:19;19.70;99.90
23717;DHT22;22094;52.130;5.598;2023-05-25T09:13:45;22.20;99.90
23717;DHT22;22094;52.130;5.598;2023-05-25T09:23:31;19.50;99.90
23717;DHT22;22094;52.130;5.598;2023-05-25T09:25:57;19.00;99.90
23717;DHT22;22094;52.130;5.598;2023-05-25T09:30:49;18.00;99.90
23717;DHT22;22094;52.130;5.598;2023-05-25T09:33:15;17.70;99.90
23717;DHT22;22094;52.130;5.598;2023-05-25T09:35:42;18.80;99.90
23717;DHT22;22094;52.130;5.598;2023-05-25T09:38:08;19.10;99.90
23717;DHT22;22094;52.130;5.598;2023-05-25T09:40:34;17.90;99.90
23717;DHT22;22094;52.130;5.598;2023-05-25T09:43:01;18.70;99.90
23717;DHT22;22094;52.130;5.598;2023-05-25T09:45:27;20.40;99.90
23717;DHT22;22094;52.130;5.598;2023-05-25T09:47:56;21.30;99.90
23717;DHT22;22094;52.130;5.598;2023-05-25T09:52:49;19.00;99.90
23717;DHT22;22094;52.130;5.598;2023-05-25T09:55:16;18.30;99.90
23717;DHT22;22094;52.130;5.598;2023-05-25T10:00:09;18.20;99.90
23717;DHT22;22094;52.130;5.598;2023-05-25T10:07:28;19.60;99.90
23717;DHT22;22094;52.130;5.598;2023-05-25T10:12:23;20.00;99.90
23717;DHT22;22094;52.130;5.598;2023-05-25T10:17:20;20.80;99.90
23717;DHT22;22094;52.130;5.598;2023-05-25T10:19:56;20.70;99.90
23717;DHT22;22094;52.130;5.598;2023-05-25T10:22:35;20.90;99.90
23717;DHT22;22094;52.130;5.598;2023-05-25T10:27:40;20.30;99.90
23717;DHT22;22094;52.130;5.598;2023-05-25T10:30:07;22.10;99.90
23717;DHT22;22094;52.130;5.598;2023-05-25T10:32:35;19.00;99.90
23717;DHT22;22094;52.130;5.598;2023-05-25T10:35:02;22.00;99.90
23717;DHT22;22094;52.130;5.598;2023-05-25T10:37:30;20.10;99.90
23717;DHT22;22094;52.130;5.598;2023-05-25T10:39:56;19.40;99.90
23717;DHT22;22094;52.130;5.598;2023-05-25T10:42:22;21.10;99.90
23717;DHT22;22094;52.130;5.598;2023-05-25T10:44:49;18.90;99.90
23717;DHT22;22094;52.130;5.598;2023-05-25T10:47:15;19.20;99.90
23717;DHT22;22094;52.130;5.598;2023-05-25T10:49:54;19.80;99.90
23717;DHT22;22094;52.130;5.598;2023-05-25T10:52:20;20.10;99.90
23717;DHT22;22094;52.130;5.598;2023-05-25T10:54:47;19.70;99.90
23717;DHT22;22094;52.130;5.598;2023-05-25T10:57:20;20.00;99.90
23717;DHT22;22094;52.130;5.598;2023-05-25T10:59:50;18.70;99.90
23717;DHT22;22094;52.130;5.598;2023-05-25T11:02:18;19.30;99.90
23717;DHT22;22094;52.130;5.598;2023-05-25T11:04:48;19.60;99.90
23717;DHT22;22094;52.130;5.598;2023-05-25T11:07:15;19.30;99.90
23717;DHT22;22094;52.130;5.598;2023-05-25T11:09:42;17.20;99.90
23717;DHT22;22094;52.130;5.598;2023-05-25T11:12:17;19.40;99.90
23717;DHT22;22094;52.130;5.598;2023-05-25T11:14:44;18.20;99.90
23717;DHT22;22094;52.130;5.598;2023-05-25T11:17:11;19.50;99.90
23717;DHT22;22094;52.130;5.598;2023-05-25T11:19:47;19.50;99.90
23717;DHT22;22094;52.130;5.598;2023-05-25T11:22:18;19.40;99.90
23717;DHT22;22094;52.130;5.598;2023-05-25T11:24:47;19.90;99.90
23717;DHT22;22094;52.130;5.598;2023-05-25T11:27:13;18.20;99.90
23717;DHT22;22094;52.130;5.598;2023-05-25T11:29:39;19.50;99.90
23717;DHT22;22094;52.130;5.598;2023-05-25T11:32:11;19.10;99.90
23717;DHT22;22094;52.130;5.598;2023-05-25T11:34:40;18.50;99.90
23717;DHT22;22094;52.130;5.598;2023-05-25T11:39:37;19.90;99.90
23717;DHT22;22094;52.130;5.598;2023-05-25T11:42:05;19.20;99.90
23717;DHT22;22094;52.130;5.598;2023-05-25T11:44:34;19.30;99.90
23717;DHT22;22094;52.130;5.598;2023-05-25T11:47:07;19.10;99.90
23717;DHT22;22094;52.130;5.598;2023-05-25T11:49:33;19.80;99.90
23717;DHT22;22094;52.130;5.598;2023-05-25T11:52:04;19.90;99.90
23717;DHT22;22094;52.130;5.598;2023-05-25T11:54:30;21.40;99.90
23717;DHT22;22094;52.130;5.598;2023-05-25T11:56:56;18.90;99.90
23717;DHT22;22094;52.130;5.598;2023-05-25T11:59:28;16.50;99.90
23717;DHT22;22094;52.130;5.598;2023-05-25T12:02:00;20.20;99.90
23717;DHT22;22094;52.130;5.598;2023-05-25T12:04:26;17.60;99.90
23717;DHT22;22094;52.130;5.598;2023-05-25T12:07:03;17.90;99.90
23717;DHT22;22094;52.130;5.598;2023-05-25T12:11:55;20.20;99.90
23717;DHT22;22094;52.130;5.598;2023-05-25T12:16:48;19.20;99.90
23717;DHT22;22094;52.130;5.598;2023-05-25T12:19:15;18.10;99.90
23717;DHT22;22094;52.130;5.598;2023-05-25T12:21:41;18.20;99.90
23717;DHT22;22094;52.130;5.598;2023-05-25T12:24:08;20.20;99.90
23717;DHT22;22094;52.130;5.598;2023-05-25T12:29:04;22.40;99.90
23717;DHT22;22094;52.130;5.598;2023-05-25T12:31:31;21.80;99.90
23717;DHT22;22094;52.130;5.598;2023-05-25T12:34:14;20.20;99.90
23717;DHT22;22094;52.130;5.598;2023-05-25T12:36:53;20.20;99.90
23717;DHT22;22094;52.130;5.598;2023-05-25T12:41:54;19.70;99.90
23717;DHT22;22094;52.130;5.598;2023-05-25T12:44:25;20.40;99.90
23717;DHT22;22094;52.130;5.598;2023-05-25T12:46:55;21.60;99.90
23717;DHT22;22094;52.130;5.598;2023-05-25T12:49:31;19.50;99.90
23717;DHT22;22094;52.130;5.598;2023-05-25T12:51:58;20.10;99.90
23717;DHT22;22094;52.130;5.598;2023-05-25T12:54:40;20.20;99.90
23717;DHT22;22094;52.130;5.598;2023-05-25T12:57:07;20.10;99.90
23717;DHT22;22094;52.130;5.598;2023-05-25T12:59:34;20.50;99.90
23717;DHT22;22094;52.130;5.598;2023-05-25T13:02:01;20.20;99.90
23717;DHT22;22094;52.130;5.598;2023-05-25T13:04:26;22.80;99.90
23717;DHT22;22094;52.130;5.598;2023-05-25T13:06:52;20.50;99.90
23717;DHT22;22094;52.130;5.598;2023-05-25T13:09:18;19.80;99.90
23717;DHT22;22094;52.130;5.598;2023-05-25T13:11:44;19.60;99.90
23717;DHT22;22094;52.130;5.598;2023-05-25T13:16:35;20.70;99.90
23717;DHT22;22094;52.130;5.598;2023-05-25T13:19:01;20.40;99.90
23717;DHT22;22094;52.130;5.598;2023-05-25T13:21:27;20.90;99.90
23717;DHT22;22094;52.130;5.598;2023-05-25T13:23:53;21.30;99.90
23717;DHT22;22094;52.130;5.598;2023-05-25T13:26:19;21.20;99.90
23717;DHT22;22094;52.130;5.598;2023-05-25T13:31:11;20.90;99.90
23717;DHT22;22094;52.130;5.598;2023-05-25T13:33:36;18.30;99.90
23717;DHT22;22094;52.130;5.598;2023-05-25T13:36:02;19.90;99.90
23717;DHT22;22094;52.130;5.598;2023-05-25T13:38:32;20.00;99.90
23717;DHT22;22094;52.130;5.598;2023-05-25T13:40:59;19.70;99.90
23717;DHT22;22094;52.130;5.598;2023-05-25T13:45:50;20.10;99.90
23717;DHT22;22094;52.130;5.598;2023-05-25T13:48:16;20.40;99.90
23717;DHT22;22094;52.130;5.598;2023-05-25T13:53:09;20.10;99.90
23717;DHT22;22094;52.130;5.598;2023-05-25T13:55:35;22.10;99.90
23717;DHT22;22094;52.130;5.598;2023-05-25T13:58:00;21.40;99.90
23717;DHT22;22094;52.130;5.598;2023-05-25T14:05:18;24.70;99.90
23717;DHT22;22094;52.130;5.598;2023-05-25T14:07:45;23.70;99.30
23717;DHT22;22094;52.130;5.598;2023-05-25T14:10:12;23.00;99.50
23717;DHT22;22094;52.130;5.598;2023-05-25T14:12:37;23.20;99.00
23717;DHT22;22094;52.130;5.598;2023-05-25T14:15:04;23.40;99.60
23717;DHT22;22094;52.130;5.598;2023-05-25T14:17:30;24.30;98.60
23717;DHT22;22094;52.130;5.598;2023-05-25T14:19:56;24.70;96.00
23717;DHT22;22094;52.130;5.598;2023-05-25T14:22:22;25.40;95.10
23717;DHT22;22094;52.130;5.598;2023-05-25T14:27:14;23.40;94.30
23717;DHT22;22094;52.130;5.598;2023-05-25T14:29:49;24.60;94.20
23717;DHT22;22094;52.130;5.598;2023-05-25T14:34:42;24.60;94.40
23717;DHT22;22094;52.130;5.598;2023-05-25T14:39:33;23.10;92.70
23717;DHT22;22094;52.130;5.598;2023-05-25T14:44:27;25.10;91.40
23717;DHT22;22094;52.130;5.598;2023-05-25T14:49:18;25.10;89.80
23717;DHT22;22094;52.130;5.598;2023-05-25T14:51:51;25.30;89.10
23717;DHT22;22094;52.130;5.598;2023-05-25T14:54:17;24.60;89.20
23717;DHT22;22094;52.130;5.598;2023-05-25T14:56:42;26.60;90.10
23717;DHT22;22094;52.130;5.598;2023-05-25T14:59:08;26.30;87.20
23717;DHT22;22094;52.130;5.598;2023-05-25T15:08:51;25.50;83.10
23717;DHT22;22094;52.130;5.598;2023-05-25T15:11:17;25.70;85.50
23717;DHT22;22094;52.130;5.598;2023-05-25T15:13:43;26.30;85.00
23717;DHT22;22094;52.130;5.598;2023-05-25T15:16:12;26.60;82.00
23717;DHT22;22094;52.130;5.598;2023-05-25T15:18:38;26.70;80.00
23717;DHT22;22094;52.130;5.598;2023-05-25T15:21:04;26.70;79.30
23717;DHT22;22094;52.130;5.598;2023-05-25T15:28:22;26.30;77.70
23717;DHT22;22094;52.130;5.598;2023-05-25T15:30:48;28.90;78.40
23717;DHT22;22094;52.130;5.598;2023-05-25T15:33:13;26.40;75.10
23717;DHT22;22094;52.130;5.598;2023-05-25T15:35:40;26.50;74.40
23717;DHT22;22094;52.130;5.598;2023-05-25T15:40:31;26.90;74.60
23717;DHT22;22094;52.130;5.598;2023-05-25T15:42:57;26.60;73.90
23717;DHT22;22094;52.130;5.598;2023-05-25T15:47:49;24.20;73.70
23717;DHT22;22094;52.130;5.598;2023-05-25T15:50:14;26.70;73.10
23717;DHT22;22094;52.130;5.598;2023-05-25T15:52:40;26.70;73.30
23717;DHT22;22094;52.130;5.598;2023-05-25T15:55:06;27.20;72.40
23717;DHT22;22094;52.130;5.598;2023-05-25T15:57:32;25.20;71.60
23717;DHT22;22094;52.130;5.598;2023-05-25T15:59:57;25.70;72.60
23717;DHT22;22094;52.130;5.598;2023-05-25T16:04:49;24.00;71.60
23717;DHT22;22094;52.130;5.598;2023-05-25T16:07:14;25.00;72.40
23717;DHT22;22094;52.130;5.598;2023-05-25T16:12:06;25.80;74.90
23717;DHT22;22094;52.130;5.598;2023-05-25T16:14:31;25.50;74.30
23717;DHT22;22094;52.130;5.598;2023-05-25T16:19:23;26.20;73.60
23717;DHT22;22094;52.130;5.598;2023-05-25T16:21:48;26.80;73.60
23717;DHT22;22094;52.130;5.598;2023-05-25T16:24:14;25.00;71.30
23717;DHT22;22094;52.130;5.598;2023-05-25T16:26:40;23.10;71.60
23717;DHT22;22094;52.130;5.598;2023-05-25T16:33:59;24.70;71.80
23717;DHT22;22094;52.130;5.598;2023-05-25T16:36:25;25.20;73.30
23717;DHT22;22094;52.130;5.598;2023-05-25T16:43:42;25.30;72.50
23717;DHT22;22094;52.130;5.598;2023-05-25T16:46:08;24.30;71.50
23717;DHT22;22094;52.130;5.598;2023-05-25T16:48:33;25.40;73.30
23717;DHT22;22094;52.130;5.598;2023-05-25T16:53:25;24.60;74.40
23717;DHT22;22094;52.130;5.598;2023-05-25T16:58:16;24.70;74.40
23717;DHT22;22094;52.130;5.598;2023-05-25T17:00:42;25.30;74.80
23717;DHT22;22094;52.130;5.598;2023-05-25T17:03:07;24.40;74.40
23717;DHT22;22094;52.130;5.598;2023-05-25T17:05:33;23.70;73.00
23717;DHT22;22094;52.130;5.598;2023-05-25T17:07:59;25.10;74.20
23717;DHT22;22094;52.130;5.598;2023-05-25T17:10:24;25.10;75.70
23717;DHT22;22094;52.130;5.598;2023-05-25T17:15:16;24.10;76.10
23717;DHT22;22094;52.130;5.598;2023-05-25T17:17:42;23.40;76.30
23717;DHT22;22094;52.130;5.598;2023-05-25T17:20:08;22.80;78.30
23717;DHT22;22094;52.130;5.598;2023-05-25T17:27:27;23.60;78.50
23717;DHT22;22094;52.130;5.598;2023-05-25T17:29:53;23.20;79.10
23717;DHT22;22094;52.130;5.598;2023-05-25T17:34:45;22.30;79.60
23717;DHT22;22094;52.130;5.598;2023-05-25T17:37:10;22.40;80.30
23717;DHT22;22094;52.130;5.598;2023-05-25T17:39:36;21.00;79.30
23717;DHT22;22094;52.130;5.598;2023-05-25T17:42:02;22.50;80.60
23717;DHT22;22094;52.130;5.598;2023-05-25T17:44:27;22.20;80.20
23717;DHT22;22094;52.130;5.598;2023-05-25T17:46:53;21.00;80.10
23717;DHT22;22094;52.130;5.598;2023-05-25T17:49:19;20.70;81.10
23717;DHT22;22094;52.130;5.598;2023-05-25T17:56:43;20.30;84.20
23717;DHT22;22094;52.130;5.598;2023-05-25T17:59:09;21.00;84.70
23717;DHT22;22094;52.130;5.598;2023-05-25T18:04:00;20.50;85.90
23717;DHT22;22094;52.130;5.598;2023-05-25T18:06:26;20.20;86.20
23717;DHT22;22094;52.130;5.598;2023-05-25T18:08:51;19.60;86.10
23717;DHT22;22094;52.130;5.598;2023-05-25T18:11:17;20.10;87.50
23717;DHT22;22094;52.130;5.598;2023-05-25T18:13:43;19.90;88.20
23717;DHT22;22094;52.130;5.598;2023-05-25T18:16:08;19.20;88.50
23717;DHT22;22094;52.130;5.598;2023-05-25T18:18:34;19.90;89.70
23717;DHT22;22094;52.130;5.598;2023-05-25T18:20:59;19.90;89.50
23717;DHT22;22094;52.130;5.598;2023-05-25T18:23:25;19.70;90.20